Time;durP1;ratioP1;P1;durP2;ratioP2;P2;SDS_P1;SDS_P2;PMS_P1;PMS_P2;Temp;Humidity;BMP_temperature;BMP_pressure;BME280_temperature;BME280_humidity;BME280_pressure;Samples;Min_cycle;Max_cycle;Signal;HPM_P1;HPM_P2
2023/04/13 00:02:24;;;;;;;3.17;1.77;;;6.60;99.90;;;;;;4752284;30;20499;-81
2023/04/13 00:04:50;;;;;;;4.28;2.25;;;6.50;99.90;;;;;;4768554;30;20127;-81
2023/04/13 00:07:17;;;;;;;5.18;1.60;;;6.60;99.90;;;;;;4766214;30;20415;-81
2023/04/13 00:09:46;;;;;;;3.45;1.45;;;6.60;99.90;;;;;;4768656;30;20044;-81
2023/04/13 00:12:13;;;;;;;4.40;1.73;;;6.70;99.90;;;;;;4769843;30;20101;-81
2023/04/13 00:14:39;;;;;;;3.95;1.38;;;6.70;99.90;;;;;;4763402;30;20143;-82
2023/04/13 00:17:04;;;;;;;3.08;1.50;;;6.70;99.90;;;;;;4765775;30;20559;-81
2023/04/13 00:19:33;;;;;;;4.80;1.50;;;6.80;99.90;;;;;;4752840;30;20047;-81
2023/04/13 00:21:59;;;;;;;4.70;1.38;;;6.70;99.90;;;;;;4766605;30;20500;-82
2023/04/13 00:24:25;;;;;;;2.50;1.17;;;6.90;99.90;;;;;;4766306;30;20602;-81
2023/04/13 00:26:53;;;;;;;6.65;1.60;;;6.90;99.90;;;;;;4752886;30;20039;-81
2023/04/13 00:29:19;;;;;;;6.10;1.42;;;6.80;99.90;;;;;;4767626;30;20043;-81
2023/04/13 00:31:45;;;;;;;2.78;1.65;;;6.90;99.90;;;;;;4753266;30;20055;-82
2023/04/13 00:34:10;;;;;;;4.70;1.42;;;7.00;99.90;;;;;;4767870;30;20610;-81
2023/04/13 00:36:36;;;;;;;4.35;1.33;;;7.00;99.90;;;;;;4752973;30;20105;-81
2023/04/13 00:39:02;;;;;;;3.05;1.70;;;7.00;99.90;;;;;;4752692;30;20515;-82
2023/04/13 00:41:28;;;;;;;5.03;1.73;;;7.00;99.90;;;;;;4767770;30;20079;-82
2023/04/13 00:43:53;;;;;;;4.43;1.48;;;7.00;99.90;;;;;;4766503;30;20044;-81
2023/04/13 00:46:19;;;;;;;3.03;1.40;;;6.90;99.90;;;;;;4752967;30;20071;-81
2023/04/13 00:48:47;;;;;;;4.25;1.33;;;6.80;99.90;;;;;;4752658;30;20048;-80
2023/04/13 00:51:14;;;;;;;2.22;1.10;;;6.80;99.90;;;;;;4751310;30;20841;-82
2023/04/13 00:53:41;;;;;;;2.47;1.00;;;6.80;99.90;;;;;;4749559;30;20055;-80
2023/04/13 00:56:08;;;;;;;2.33;0.98;;;6.80;99.90;;;;;;4752492;30;20063;-81
2023/04/13 00:58:33;;;;;;;1.83;0.85;;;6.70;99.90;;;;;;4766404;30;20068;-80
2023/04/13 01:00:59;;;;;;;2.42;1.02;;;6.70;99.90;;;;;;4751747;30;20142;-81
2023/04/13 01:03:26;;;;;;;2.40;0.85;;;6.60;99.90;;;;;;4766177;30;20527;-81
2023/04/13 01:06:10;;;;;;;4.88;1.33;;;6.70;99.90;;;;;;4751688;30;20044;-80
2023/04/13 01:08:44;;;;;;;2.15;1.13;;;6.60;99.90;;;;;;4766594;30;20488;-81
2023/04/13 01:11:27;;;;;;;5.13;1.20;;;6.50;99.90;;;;;;4752072;30;20067;-80
2023/04/13 01:14:04;;;;;;;3.50;0.80;;;6.50;99.90;;;;;;4751430;30;20087;-81
2023/04/13 01:16:39;;;;;;;3.25;1.35;;;6.50;99.90;;;;;;4749065;30;20130;-81
2023/04/13 01:19:14;;;;;;;3.67;0.87;;;6.50;99.90;;;;;;4751892;30;20082;-80
2023/04/13 01:21:41;;;;;;;2.95;1.27;;;6.50;99.90;;;;;;4750697;30;20313;-81
2023/04/13 01:24:45;;;;;;;3.42;1.02;;;6.50;99.90;;;;;;4748584;30;20047;-81
2023/04/13 01:27:19;;;;;;;4.05;1.20;;;6.50;99.90;;;;;;4723507;30;20047;-81
2023/04/13 01:29:47;;;;;;;4.57;1.20;;;6.50;99.90;;;;;;4751155;30;20051;-81
2023/04/13 01:32:15;;;;;;;3.90;1.27;;;6.50;99.90;;;;;;4750954;30;20054;-81
2023/04/13 01:34:40;;;;;;;3.35;1.30;;;6.50;99.90;;;;;;4751875;30;20060;-80
2023/04/13 01:37:07;;;;;;;3.63;1.10;;;6.50;99.90;;;;;;4749884;30;20531;-81
2023/04/13 01:39:32;;;;;;;2.78;1.13;;;6.50;99.90;;;;;;4751952;30;20048;-82
2023/04/13 01:41:59;;;;;;;2.78;1.13;;;6.50;99.90;;;;;;4766388;30;20475;-81
2023/04/13 01:44:32;;;;;;;2.78;1.25;;;6.50;99.90;;;;;;4766347;30;20096;-80
2023/04/13 01:47:14;;;;;;;2.28;1.15;;;6.50;99.90;;;;;;4753526;30;20048;-81
2023/04/13 01:49:46;;;;;;;3.67;1.38;;;6.50;99.90;;;;;;4754343;30;20096;-81
2023/04/13 01:52:13;;;;;;;3.80;0.88;;;6.50;99.90;;;;;;4768262;30;20082;-81
2023/04/13 01:54:41;;;;;;;2.38;0.90;;;6.50;99.90;;;;;;4769988;30;20109;-80
2023/04/13 01:57:09;;;;;;;4.95;1.20;;;6.50;99.90;;;;;;4753123;30;20048;-80
2023/04/13 01:59:34;;;;;;;1.98;0.57;;;6.50;99.90;;;;;;4769627;30;20044;-80
2023/04/13 02:02:00;;;;;;;2.60;0.85;;;6.60;99.90;;;;;;4769310;30;20062;-80
2023/04/13 02:04:25;;;;;;;3.13;0.90;;;6.50;99.90;;;;;;4754418;30;20551;-80
2023/04/13 02:06:51;;;;;;;3.72;0.75;;;6.50;99.90;;;;;;4768028;30;20051;-81
2023/04/13 02:09:16;;;;;;;2.40;0.90;;;6.50;99.90;;;;;;4769234;30;20104;-80
2023/04/13 02:11:43;;;;;;;1.75;0.60;;;6.50;99.90;;;;;;4755069;30;20074;-80
2023/04/13 02:14:09;;;;;;;4.03;1.67;;;6.50;99.90;;;;;;4753243;30;20760;-80
2023/04/13 02:16:34;;;;;;;5.03;1.25;;;6.50;99.90;;;;;;4753574;30;20060;-80
2023/04/13 02:19:00;;;;;;;1.95;0.65;;;6.50;99.90;;;;;;4754647;30;20048;-80
2023/04/13 02:21:26;;;;;;;3.75;1.00;;;6.40;99.90;;;;;;4754453;30;20052;-80
2023/04/13 02:23:51;;;;;;;2.35;0.77;;;6.40;99.90;;;;;;4753387;30;20048;-80
2023/04/13 02:26:17;;;;;;;3.53;0.70;;;6.40;99.90;;;;;;4769432;30;20046;-80
2023/04/13 02:28:44;;;;;;;3.10;0.77;;;6.40;99.90;;;;;;4755409;30;20055;-79
2023/04/13 02:31:15;;;;;;;4.55;0.90;;;6.40;99.90;;;;;;4770889;30;20043;-79
2023/04/13 02:33:42;;;;;;;2.35;0.65;;;6.30;99.90;;;;;;4767469;30;20051;-80
2023/04/13 02:36:08;;;;;;;5.75;0.55;;;6.40;99.90;;;;;;4754116;30;20609;-80
2023/04/13 02:38:36;;;;;;;4.53;0.88;;;6.40;99.90;;;;;;4769137;30;20048;-79
2023/04/13 02:41:02;;;;;;;1.80;0.50;;;6.40;99.90;;;;;;4768732;30;20065;-80
2023/04/13 02:43:28;;;;;;;3.45;0.70;;;6.40;99.90;;;;;;4753951;30;20051;-80
2023/04/13 02:45:54;;;;;;;3.88;0.85;;;6.40;99.90;;;;;;4770428;30;20062;-80
2023/04/13 02:48:20;;;;;;;3.80;0.70;;;6.40;99.90;;;;;;4754407;30;20047;-79
2023/04/13 02:50:46;;;;;;;5.70;0.90;;;6.40;99.90;;;;;;4752695;30;20058;-79
2023/04/13 02:53:13;;;;;;;1.50;0.60;;;6.40;99.90;;;;;;4769692;30;20974;-80
2023/04/13 02:55:38;;;;;;;5.13;0.63;;;6.40;99.90;;;;;;4768694;30;20058;-79
2023/04/13 02:58:05;;;;;;;5.28;1.23;;;6.40;99.90;;;;;;4769821;30;20138;-80
2023/04/13 03:00:31;;;;;;;2.47;0.70;;;6.40;99.90;;;;;;4751087;30;20084;-79
2023/04/13 03:02:57;;;;;;;4.28;0.70;;;6.40;99.90;;;;;;4751230;30;20064;-79
2023/04/13 03:05:23;;;;;;;3.15;0.70;;;6.40;99.90;;;;;;4770025;30;20071;-79
2023/04/13 03:07:49;;;;;;;2.45;0.50;;;6.40;99.90;;;;;;4752332;30;20082;-79
2023/04/13 03:10:14;;;;;;;3.70;0.95;;;6.40;99.90;;;;;;4768361;30;20146;-79
2023/04/13 03:12:40;;;;;;;4.47;1.00;;;6.40;99.90;;;;;;4752486;30;20106;-80
2023/04/13 03:15:09;;;;;;;2.50;0.82;;;6.40;99.90;;;;;;4749835;30;20039;-80
2023/04/13 03:17:39;;;;;;;6.03;1.08;;;6.40;99.90;;;;;;4769115;30;20044;-80
2023/04/13 03:20:09;;;;;;;1.10;0.68;;;6.30;99.90;;;;;;4767353;30;20047;-79
2023/04/13 03:22:35;;;;;;;1.23;0.68;;;6.40;99.90;;;;;;4750193;30;20725;-79
2023/04/13 03:25:01;;;;;;;1.67;0.63;;;6.40;99.90;;;;;;4765942;30;20044;-79
2023/04/13 03:27:27;;;;;;;2.72;0.55;;;6.40;99.90;;;;;;4767390;30;20102;-79
2023/04/13 03:29:52;;;;;;;1.50;0.80;;;6.40;99.90;;;;;;4768579;30;20480;-79
2023/04/13 03:32:18;;;;;;;2.05;0.80;;;6.40;99.90;;;;;;4765367;30;20112;-79
2023/04/13 03:34:44;;;;;;;3.08;0.90;;;6.40;99.90;;;;;;4765977;30;20136;-79
2023/04/13 03:37:10;;;;;;;1.77;1.00;;;6.40;99.90;;;;;;4752113;30;20139;-80
2023/04/13 03:39:36;;;;;;;2.60;1.08;;;6.40;99.90;;;;;;4752698;30;20044;-80
2023/04/13 03:42:02;;;;;;;2.60;1.05;;;6.50;99.90;;;;;;4766417;30;20105;-79
2023/04/13 03:44:29;;;;;;;1.08;0.70;;;6.40;99.90;;;;;;4767817;30;20052;-80
2023/04/13 03:46:55;;;;;;;2.67;0.75;;;6.40;99.90;;;;;;4749795;30;20043;-79
2023/04/13 03:49:20;;;;;;;1.90;0.68;;;6.50;99.90;;;;;;4767522;30;20047;-80
2023/04/13 03:51:46;;;;;;;3.20;1.10;;;6.50;99.90;;;;;;4750540;30;20054;-80
2023/04/13 03:54:12;;;;;;;2.25;1.00;;;6.50;99.90;;;;;;4765572;30;20047;-79
2023/04/13 03:56:37;;;;;;;4.25;1.05;;;6.50;99.90;;;;;;4765966;30;20561;-80
2023/04/13 03:59:03;;;;;;;2.80;1.00;;;6.50;99.90;;;;;;4765955;30;20054;-80
2023/04/13 04:01:28;;;;;;;2.20;1.00;;;6.50;99.90;;;;;;4746256;30;20044;-80
2023/04/13 04:03:55;;;;;;;2.63;0.98;;;6.50;99.90;;;;;;4750322;30;20048;-80
2023/04/13 04:06:22;;;;;;;3.00;1.00;;;6.50;99.90;;;;;;4750392;30;20063;-79
2023/04/13 04:08:48;;;;;;;4.15;1.15;;;6.50;99.90;;;;;;4750701;30;20047;-80
2023/04/13 04:11:15;;;;;;;1.80;1.00;;;6.50;99.90;;;;;;4764862;30;20048;-80
2023/04/13 04:13:41;;;;;;;1.38;1.00;;;6.60;99.90;;;;;;4766299;30;20048;-79
2023/04/13 04:16:07;;;;;;;4.65;1.95;;;6.60;99.90;;;;;;4750246;30;20781;-79
2023/04/13 04:18:34;;;;;;;2.45;1.25;;;6.60;99.90;;;;;;4751456;30;20448;-79
2023/04/13 04:21:01;;;;;;;2.60;1.70;;;6.60;99.90;;;;;;4764080;30;20052;-80
2023/04/13 04:23:27;;;;;;;2.67;1.77;;;6.70;99.90;;;;;;4748492;30;20586;-79
2023/04/13 04:25:53;;;;;;;4.63;2.33;;;6.60;99.90;;;;;;4767424;30;20050;-80
2023/04/13 04:28:19;;;;;;;2.75;1.60;;;6.60;99.90;;;;;;4750150;30;20143;-80
2023/04/13 04:30:53;;;;;;;3.90;1.40;;;6.60;99.90;;;;;;4748269;30;20158;-79
2023/04/13 04:33:22;;;;;;;4.03;1.40;;;6.60;99.90;;;;;;4749635;30;20064;-81
2023/04/13 04:35:50;;;;;;;2.90;1.52;;;6.60;99.90;;;;;;4766010;30;20060;-78
2023/04/13 04:38:16;;;;;;;4.28;1.58;;;6.60;99.90;;;;;;4765547;30;20058;-80
2023/04/13 04:40:45;;;;;;;1.90;1.65;;;6.60;99.90;;;;;;4748247;30;20109;-79
2023/04/13 04:43:12;;;;;;;2.85;1.83;;;6.50;99.90;;;;;;4763200;30;20032;-79
2023/04/13 04:45:42;;;;;;;2.20;2.00;;;6.50;99.90;;;;;;4766830;30;20496;-78
2023/04/13 04:48:08;;;;;;;3.03;2.17;;;6.50;99.90;;;;;;4750004;30;20056;-80
2023/04/13 04:50:36;;;;;;;3.38;2.15;;;6.50;99.90;;;;;;4748883;30;20586;-79
2023/04/13 04:53:02;;;;;;;2.95;2.63;;;6.50;99.90;;;;;;4766347;30;20086;-80
2023/04/13 04:55:28;;;;;;;2.65;1.98;;;6.50;99.90;;;;;;4749676;30;20580;-80
2023/04/13 04:57:53;;;;;;;5.22;3.08;;;6.50;99.90;;;;;;4737354;30;20056;-78
2023/04/13 05:00:19;;;;;;;3.88;2.35;;;6.50;99.90;;;;;;4763508;30;20109;-77
2023/04/13 05:02:46;;;;;;;3.85;2.22;;;6.50;99.90;;;;;;4750251;30;20704;-79
2023/04/13 05:05:12;;;;;;;3.92;2.10;;;6.50;99.90;;;;;;4764708;30;20055;-80
2023/04/13 05:07:38;;;;;;;3.13;2.33;;;6.40;99.90;;;;;;4751206;30;20818;-80
2023/04/13 05:10:06;;;;;;;3.80;2.80;;;6.40;99.90;;;;;;4749796;30;20492;-79
2023/04/13 05:12:33;;;;;;;4.82;2.70;;;6.50;99.90;;;;;;4767570;30;20535;-81
2023/04/13 05:14:59;;;;;;;4.82;2.28;;;6.40;99.90;;;;;;4764095;30;20044;-81
2023/04/13 05:17:24;;;;;;;3.13;2.70;;;6.50;99.90;;;;;;4765263;30;20046;-81
2023/04/13 05:19:50;;;;;;;4.32;3.13;;;6.50;99.90;;;;;;4734384;30;20079;-81
2023/04/13 05:22:16;;;;;;;3.42;2.38;;;6.60;99.90;;;;;;4763905;30;20138;-81
2023/04/13 05:24:42;;;;;;;2.70;2.40;;;6.90;99.90;;;;;;4749584;30;20052;-78
2023/04/13 05:27:08;;;;;;;3.10;1.83;;;7.10;99.90;;;;;;4766362;30;20050;-79
2023/04/13 05:29:34;;;;;;;3.38;1.67;;;7.60;99.90;;;;;;4752825;30;20457;-81
2023/04/13 05:32:00;;;;;;;1.88;1.30;;;8.40;99.90;;;;;;4768289;30;20051;-81
2023/04/13 05:34:26;;;;;;;1.58;0.93;;;9.30;99.90;;;;;;4738009;30;20066;-81
2023/04/13 05:36:52;;;;;;;2.25;0.80;;;10.10;99.90;;;;;;4752295;30;20042;-80
2023/04/13 05:39:19;;;;;;;2.33;1.38;;;10.60;99.90;;;;;;4751261;30;20055;-81
2023/04/13 05:41:44;;;;;;;3.03;1.02;;;10.10;99.90;;;;;;4765019;30;20668;-81
2023/04/13 05:44:10;;;;;;;2.75;1.40;;;9.60;99.90;;;;;;4753281;30;20071;-82
2023/04/13 05:46:36;;;;;;;4.93;2.03;;;9.20;99.90;;;;;;4767279;30;21382;-82
2023/04/13 05:49:02;;;;;;;1.95;1.20;;;9.60;99.90;;;;;;4753226;30;20051;-83
2023/04/13 05:51:31;;;;;;;3.17;1.00;;;10.30;99.90;;;;;;4753061;30;20151;-82
2023/04/13 05:53:57;;;;;;;2.58;1.25;;;10.90;99.90;;;;;;4752601;30;20056;-82
2023/04/13 05:56:28;;;;;;;2.17;0.93;;;10.80;99.90;;;;;;4755172;30;20040;-83
2023/04/13 05:58:54;;;;;;;3.92;1.33;;;10.60;99.90;;;;;;4736125;30;20132;-83
2023/04/13 06:01:22;;;;;;;3.00;1.27;;;10.00;99.90;;;;;;4758777;30;20106;-84
2023/04/13 06:03:47;;;;;;;3.67;1.40;;;9.50;99.90;;;;;;4751854;30;20134;-82
2023/04/13 06:09:40;;;;;;;6.57;2.22;;;8.60;99.90;;;;;;4770521;30;20040;-82
2023/04/13 06:12:07;;;;;;;3.97;1.52;;;8.20;99.90;;;;;;4767941;30;20051;-82
2023/04/13 06:15:16;;;;;;;3.38;1.17;;;8.00;99.90;;;;;;4753196;30;20170;-82
2023/04/13 06:17:41;;;;;;;4.28;1.33;;;8.00;99.90;;;;;;4749971;30;20079;-81
2023/04/13 06:20:09;;;;;;;3.97;1.65;;;7.70;99.90;;;;;;4750180;30;20440;-82
2023/04/13 06:23:06;;;;;;;6.43;1.45;;;8.70;99.90;;;;;;4765858;30;20392;-82
2023/04/13 06:26:01;;;;;;;3.60;1.30;;;10.60;99.90;;;;;;4751033;30;20040;-82
2023/04/13 06:28:48;;;;;;;;;;;;;;;;;;;;;
2023/04/13 06:31:33;;;;;;;6.68;1.38;;;11.30;99.90;;;;;;4749565;30;20454;-84
2023/04/13 06:34:35;;;;;;;7.30;1.58;;;11.80;99.90;;;;;;4739807;30;20051;-82
2023/04/13 06:38:00;;;;;;;3.08;1.83;;;12.30;99.90;;;;;;4771376;30;20113;-82
2023/04/13 06:40:45;;;;;;;4.22;1.13;;;13.90;99.90;;;;;;4767075;30;20059;-83
2023/04/13 06:43:11;;;;;;;2.22;0.90;;;15.00;99.90;;;;;;4752850;30;20044;-81
2023/04/13 06:45:36;;;;;;;4.63;1.23;;;14.40;99.90;;;;;;4738513;30;20051;-82
2023/04/13 06:48:05;;;;;;;6.07;1.25;;;13.30;99.90;;;;;;4771947;30;20044;-84
2023/04/13 06:50:44;;;;;;;2.92;0.95;;;13.00;99.90;;;;;;4754585;30;20059;-83
2023/04/13 06:54:09;;;;;;;3.60;1.70;;;12.00;99.90;;;;;;4755699;30;20047;-83
2023/04/13 06:57:13;;;;;;;6.55;1.50;;;11.90;99.90;;;;;;4769437;30;20055;-82
2023/04/13 06:59:39;;;;;;;5.78;1.27;;;12.00;99.90;;;;;;4767807;30;20066;-83
2023/04/13 07:02:31;;;;;;;6.80;1.30;;;11.90;99.90;;;;;;4750839;30;20079;-82
2023/04/13 07:05:24;;;;;;;3.55;1.42;;;11.50;99.90;;;;;;4746439;30;20059;-82
2023/04/13 07:08:31;;;;;;;3.65;1.30;;;11.00;99.90;;;;;;4740100;30;20083;-83
2023/04/13 07:11:06;;;;;;;5.93;1.45;;;10.60;99.90;;;;;;4769525;30;20491;-84
2023/04/13 07:13:32;;;;;;;3.55;1.20;;;10.20;99.90;;;;;;4771430;30;20043;-83
2023/04/13 07:15:58;;;;;;;7.18;1.60;;;10.10;99.90;;;;;;4739843;30;20050;-83
2023/04/13 07:18:24;;;;;;;7.85;2.03;;;10.30;99.90;;;;;;4767823;30;20051;-83
2023/04/13 07:20:49;;;;;;;7.05;1.60;;;10.10;99.90;;;;;;4764952;30;20056;-82
2023/04/13 07:23:15;;;;;;;8.25;1.90;;;10.20;99.90;;;;;;4765875;30;20226;-82
2023/04/13 07:25:41;;;;;;;5.70;1.55;;;10.50;99.90;;;;;;4751569;30;20050;-82
2023/04/13 07:28:06;;;;;;;7.65;1.45;;;10.60;99.90;;;;;;4751619;30;20044;-82
2023/04/13 07:30:32;;;;;;;6.57;1.33;;;10.40;99.90;;;;;;4769186;30;20051;-82
2023/04/13 07:32:57;;;;;;;6.15;1.25;;;10.20;99.90;;;;;;4751250;30;20054;-83
2023/04/13 07:35:23;;;;;;;6.38;1.48;;;10.20;99.90;;;;;;4750033;30;20210;-82
2023/04/13 07:37:49;;;;;;;7.35;1.25;;;10.10;99.90;;;;;;4766638;30;20090;-82
2023/04/13 07:40:18;;;;;;;4.00;1.40;;;10.10;99.90;;;;;;4751123;30;20436;-82
2023/04/13 07:42:44;;;;;;;4.18;1.00;;;9.90;99.90;;;;;;4749233;30;20047;-82
2023/04/13 07:45:10;;;;;;;5.30;1.10;;;9.80;99.90;;;;;;4753185;30;20169;-82
2023/04/13 07:47:36;;;;;;;7.05;1.23;;;9.60;99.90;;;;;;4750836;30;20641;-82
2023/04/13 07:50:04;;;;;;;8.13;2.22;;;9.30;99.90;;;;;;4750225;30;20070;-82
2023/04/13 07:52:30;;;;;;;7.43;1.60;;;9.20;99.90;;;;;;4755573;30;20055;-82
2023/04/13 07:55:35;;;;;;;5.88;2.03;;;8.90;99.90;;;;;;4762466;30;20043;-82
2023/04/13 07:58:45;;;;;;;7.30;1.67;;;8.80;99.90;;;;;;4765862;30;20101;-82
2023/04/13 08:01:51;;;;;;;5.25;1.92;;;8.60;99.90;;;;;;4767259;30;20046;-82
2023/04/13 08:04:23;;;;;;;7.05;2.28;;;8.50;99.90;;;;;;4749749;30;20051;-82
2023/04/13 08:07:09;;;;;;;6.90;1.83;;;8.50;99.90;;;;;;4747253;30;20182;-82
2023/04/13 08:13:01;;;;;;;5.70;1.90;;;8.50;99.90;;;;;;4763195;30;20083;-82
2023/04/13 08:16:08;;;;;;;8.80;1.40;;;8.40;99.90;;;;;;4764923;30;20134;-82
2023/04/13 08:19:12;;;;;;;3.97;1.52;;;8.30;99.90;;;;;;4764526;30;20059;-81
2023/04/13 08:21:58;;;;;;;5.25;1.15;;;8.20;99.90;;;;;;4764237;30;20059;-81
2023/04/13 08:25:25;;;;;;;3.85;1.00;;;8.30;99.90;;;;;;4764381;30;20050;-81
2023/04/13 08:28:11;;;;;;;3.40;0.88;;;8.30;99.90;;;;;;4747209;30;20158;-82
2023/04/13 08:30:59;;;;;;;6.78;1.38;;;8.50;99.90;;;;;;4760408;30;20063;-82
2023/04/13 08:33:26;;;;;;;5.65;1.25;;;8.50;99.90;;;;;;4749752;30;20052;-81
2023/04/13 08:35:51;;;;;;;4.68;0.95;;;8.50;99.90;;;;;;4753272;30;20927;-82
2023/04/13 08:38:18;;;;;;;2.72;0.43;;;8.40;99.90;;;;;;4766976;30;20050;-82
2023/04/13 08:40:46;;;;;;;1.80;0.43;;;8.30;99.90;;;;;;4769988;30;20059;-82
2023/04/13 08:43:12;;;;;;;2.25;0.40;;;8.40;99.90;;;;;;4752069;30;20130;-82
2023/04/13 08:45:41;;;;;;;2.83;0.50;;;8.60;99.90;;;;;;4747394;30;20138;-82
2023/04/13 08:48:10;;;;;;;1.80;0.60;;;8.70;99.90;;;;;;4746432;30;20122;-80
2023/04/13 08:51:02;;;;;;;2.92;0.40;;;8.80;99.90;;;;;;4763231;30;20051;-82
2023/04/13 08:54:17;;;;;;;2.58;0.60;;;8.80;99.90;;;;;;4728002;30;20078;-81
2023/04/13 08:57:07;;;;;;;3.20;0.43;;;8.70;99.90;;;;;;4745047;30;20147;-82
2023/04/13 09:00:48;;;;;;;2.50;0.25;;;8.50;99.90;;;;;;4734335;30;20118;-81
2023/04/13 09:03:37;;;;;;;1.73;0.30;;;8.40;99.90;;;;;;4755308;30;20076;-81
2023/04/13 09:07:07;;;;;;;2.17;0.30;;;8.30;99.90;;;;;;4750697;30;20099;-82
2023/04/13 09:10:21;;;;;;;1.23;0.10;;;8.30;99.90;;;;;;4763655;30;20153;-82
2023/04/13 09:12:56;;;;;;;2.33;0.40;;;8.30;99.90;;;;;;4759401;30;20052;-82
2023/04/13 09:15:46;;;;;;;3.27;0.53;;;9.30;99.90;;;;;;4755860;30;20047;-81
2023/04/13 09:18:33;;;;;;;1.08;0.50;;;9.40;99.90;;;;;;4750912;30;20388;-82
2023/04/13 09:21:36;;;;;;;2.75;0.25;;;10.00;99.90;;;;;;4761939;30;20138;-81
2023/04/13 09:24:53;;;;;;;3.05;0.85;;;10.10;99.90;;;;;;4762295;30;20062;-82
2023/04/13 09:27:39;;;;;;;2.65;0.40;;;9.70;99.90;;;;;;4751315;30;20415;-81
2023/04/13 09:30:05;;;;;;;1.15;0.20;;;9.40;99.90;;;;;;4749513;30;20055;-81
2023/04/13 09:32:31;;;;;;;1.85;0.20;;;9.20;99.90;;;;;;4748864;30;20433;-81
2023/04/13 09:35:12;;;;;;;5.35;0.70;;;9.10;99.90;;;;;;4765130;30;20051;-82
2023/04/13 09:37:41;;;;;;;1.63;0.45;;;9.50;99.90;;;;;;4745875;30;20840;-82
2023/04/13 09:40:12;;;;;;;2.35;0.40;;;9.80;99.90;;;;;;4749340;30;20047;-82
2023/04/13 09:42:53;;;;;;;4.07;0.60;;;10.20;99.90;;;;;;4766301;30;20036;-82
2023/04/13 09:45:19;;;;;;;1.67;0.30;;;10.60;99.90;;;;;;4748755;30;20043;-81
2023/04/13 09:47:46;;;;;;;6.03;0.93;;;10.60;99.90;;;;;;4749117;30;20086;-81
2023/04/13 09:50:35;;;;;;;7.82;1.70;;;10.50;99.90;;;;;;4766964;30;20110;-82
2023/04/13 09:53:22;;;;;;;7.88;0.90;;;10.40;99.90;;;;;;4748383;30;20040;-81
2023/04/13 09:56:26;;;;;;;5.38;1.08;;;10.10;99.90;;;;;;4734176;30;20075;-81
2023/04/13 09:59:08;;;;;;;5.97;0.63;;;9.80;99.90;;;;;;4740775;30;20108;-80
2023/04/13 10:02:15;;;;;;;4.03;0.98;;;9.70;99.90;;;;;;4768487;30;20535;-81
2023/04/13 10:05:11;;;;;;;4.10;0.63;;;9.50;99.90;;;;;;4748943;30;20051;-81
2023/04/13 10:07:37;;;;;;;3.47;0.60;;;9.20;99.90;;;;;;4764680;30;20504;-80
2023/04/13 10:10:45;;;;;;;3.38;0.65;;;9.00;99.90;;;;;;4746491;30;20047;-80
2023/04/13 10:13:36;;;;;;;1.73;0.30;;;8.90;99.90;;;;;;4751970;30;20054;-81
2023/04/13 10:16:10;;;;;;;2.83;0.32;;;8.80;99.90;;;;;;4752262;30;20055;-81
2023/04/13 10:18:39;;;;;;;4.80;0.50;;;8.90;99.90;;;;;;4752477;30;20051;-81
2023/04/13 10:21:06;;;;;;;6.47;0.60;;;8.80;99.90;;;;;;4756012;30;20129;-81
2023/04/13 10:23:32;;;;;;;7.07;1.08;;;8.90;99.90;;;;;;4750426;30;20055;-81
2023/04/13 10:25:59;;;;;;;5.97;0.80;;;9.00;99.90;;;;;;4748234;30;20051;-80
2023/04/13 10:28:26;;;;;;;5.63;0.70;;;9.00;99.90;;;;;;4754339;30;20392;-80
2023/04/13 10:30:52;;;;;;;7.13;1.85;;;9.10;99.90;;;;;;4770226;30;20059;-80
2023/04/13 10:33:19;;;;;;;7.72;0.95;;;9.30;99.90;;;;;;4767077;30;20067;-81
2023/04/13 10:36:01;;;;;;;8.60;1.55;;;9.30;99.90;;;;;;4755147;30;20113;-81
2023/04/13 10:38:26;;;;;;;9.52;1.10;;;9.40;99.90;;;;;;4752428;30;20419;-81
2023/04/13 10:40:52;;;;;;;4.68;0.73;;;9.40;99.90;;;;;;4769949;30;20055;-81
2023/04/13 10:43:31;;;;;;;5.35;0.70;;;9.40;99.90;;;;;;4768134;30;20047;-80
2023/04/13 10:46:15;;;;;;;4.15;0.63;;;9.70;99.90;;;;;;4767681;30;20133;-81
2023/04/13 10:48:41;;;;;;;4.80;0.90;;;10.00;99.90;;;;;;4751778;30;20518;-81
2023/04/13 10:51:06;;;;;;;5.05;0.68;;;10.10;99.90;;;;;;4749726;30;20131;-81
2023/04/13 10:53:33;;;;;;;4.75;1.55;;;10.20;99.90;;;;;;4752266;30;20197;-81
2023/04/13 10:56:00;;;;;;;5.95;1.10;;;10.20;99.90;;;;;;4747045;30;20055;-81
2023/04/13 10:58:28;;;;;;;8.65;1.17;;;10.20;99.90;;;;;;4752152;30;20047;-81
2023/04/13 11:00:54;;;;;;;16.52;2.22;;;10.20;99.90;;;;;;4751680;30;20044;-81
2023/04/13 11:03:20;;;;;;;8.38;1.55;;;10.40;99.90;;;;;;4751793;30;20039;-81
2023/04/13 11:05:47;;;;;;;12.77;1.35;;;10.50;99.90;;;;;;4767244;30;20043;-81
2023/04/13 11:08:20;;;;;;;9.95;1.85;;;10.60;99.90;;;;;;4753063;30;20043;-80
2023/04/13 11:10:53;;;;;;;11.75;2.80;;;10.70;99.90;;;;;;4752951;30;20051;-81
2023/04/13 11:13:20;;;;;;;9.30;2.50;;;11.00;99.90;;;;;;4751036;30;20043;-81
2023/04/13 11:15:48;;;;;;;9.98;2.50;;;11.10;99.90;;;;;;4751399;30;20497;-81
2023/04/13 11:18:24;;;;;;;8.82;1.75;;;11.10;99.90;;;;;;4751134;30;20058;-81
2023/04/13 11:20:50;;;;;;;6.95;1.48;;;11.10;99.90;;;;;;4749421;30;20055;-81
2023/04/13 11:23:17;;;;;;;9.57;1.90;;;11.10;99.90;;;;;;4750711;30;20704;-81
2023/04/13 11:25:53;;;;;;;8.98;1.83;;;11.10;99.90;;;;;;4768055;30;20118;-81
2023/04/13 11:28:22;;;;;;;9.40;1.77;;;11.00;99.90;;;;;;4765737;30;20067;-81
2023/04/13 11:30:55;;;;;;;7.85;1.92;;;10.90;99.90;;;;;;4766250;30;20066;-81
2023/04/13 11:33:29;;;;;;;11.27;2.40;;;10.90;99.90;;;;;;4749400;30;20127;-81
2023/04/13 11:35:56;;;;;;;9.90;1.63;;;10.90;99.90;;;;;;4764130;30;20051;-81
2023/04/13 11:38:22;;;;;;;7.35;1.20;;;10.80;99.90;;;;;;4765589;30;20047;-81
2023/04/13 11:40:49;;;;;;;10.82;2.25;;;10.80;99.90;;;;;;4750112;30;20834;-80
2023/04/13 11:43:18;;;;;;;11.23;2.08;;;10.80;99.90;;;;;;4751420;30;20055;-81
2023/04/13 11:45:46;;;;;;;6.15;1.42;;;10.90;99.90;;;;;;4767685;30;20104;-81
2023/04/13 11:48:12;;;;;;;11.05;1.80;;;10.90;99.90;;;;;;4764910;30;20454;-81
2023/04/13 11:50:40;;;;;;;8.70;1.65;;;11.10;99.90;;;;;;4764285;30;20070;-81
2023/04/13 11:53:08;;;;;;;10.82;1.33;;;11.10;99.90;;;;;;4749745;30;20621;-80
2023/04/13 11:55:34;;;;;;;8.05;1.30;;;11.10;99.90;;;;;;4752456;30;20083;-81
2023/04/13 11:58:09;;;;;;;11.40;1.70;;;10.90;99.90;;;;;;4751185;30;20051;-81
2023/04/13 12:00:40;;;;;;;11.50;1.58;;;10.90;99.90;;;;;;4765834;30;20056;-80
2023/04/13 12:03:14;;;;;;;7.60;1.48;;;10.90;99.90;;;;;;4751471;30;20079;-81
2023/04/13 12:05:41;;;;;;;9.82;1.42;;;11.10;99.90;;;;;;4751328;30;20039;-80
2023/04/13 12:08:07;;;;;;;7.78;1.88;;;11.20;99.90;;;;;;4768169;30;20121;-82
2023/04/13 12:10:34;;;;;;;6.93;1.40;;;11.30;99.90;;;;;;4750779;30;20500;-81
2023/04/13 12:13:07;;;;;;;5.00;1.23;;;11.40;99.90;;;;;;4751687;30;20063;-81
2023/04/13 12:15:35;;;;;;;10.27;1.27;;;11.70;99.90;;;;;;4766132;30;20446;-81
2023/04/13 12:18:02;;;;;;;10.88;1.38;;;11.80;99.90;;;;;;4765969;30;20078;-83
2023/04/13 12:20:39;;;;;;;11.55;1.77;;;11.60;99.90;;;;;;4751641;30;20048;-82
2023/04/13 12:23:18;;;;;;;8.63;1.70;;;11.40;99.90;;;;;;4750777;30;20055;-82
2023/04/13 12:26:03;;;;;;;8.27;1.25;;;11.20;99.90;;;;;;4766553;30;20051;-81
2023/04/13 12:28:34;;;;;;;10.50;2.10;;;11.10;99.90;;;;;;4746019;30;20086;-81
2023/04/13 12:31:06;;;;;;;7.35;1.77;;;11.00;99.90;;;;;;4734801;30;20762;-81
2023/04/13 12:33:32;;;;;;;11.10;1.70;;;11.00;99.90;;;;;;4765117;30;20161;-80
2023/04/13 12:35:57;;;;;;;9.02;1.85;;;10.90;99.90;;;;;;4766148;30;20143;-81
2023/04/13 12:38:23;;;;;;;7.68;2.33;;;10.90;99.90;;;;;;4750979;30;20040;-81
2023/04/13 12:40:54;;;;;;;9.38;1.92;;;10.90;99.90;;;;;;4750702;30;20570;-83
2023/04/13 12:43:20;;;;;;;10.52;1.80;;;10.90;99.90;;;;;;4769222;30;20054;-81
2023/04/13 12:45:45;;;;;;;9.77;1.65;;;10.90;99.90;;;;;;4748696;30;20039;-81
2023/04/13 12:48:11;;;;;;;8.38;2.03;;;10.90;99.90;;;;;;4766568;30;20043;-79
2023/04/13 12:50:36;;;;;;;11.30;1.88;;;10.90;99.90;;;;;;4751697;30;20064;-80
2023/04/13 12:53:02;;;;;;;7.65;2.22;;;11.20;99.90;;;;;;4765728;30;20056;-82
2023/04/13 12:55:29;;;;;;;10.90;1.33;;;11.50;99.90;;;;;;4749304;30;20055;-81
2023/04/13 12:57:55;;;;;;;7.72;1.48;;;11.70;99.90;;;;;;4737144;30;20111;-81
2023/04/13 13:00:20;;;;;;;7.43;1.63;;;11.90;99.90;;;;;;4765215;30;20154;-81
2023/04/13 13:02:47;;;;;;;10.35;1.48;;;12.10;99.90;;;;;;4754574;30;20043;-81
2023/04/13 13:05:13;;;;;;;6.60;1.52;;;12.20;99.90;;;;;;4750781;30;20055;-82
2023/04/13 13:07:38;;;;;;;6.30;1.38;;;12.30;99.90;;;;;;4768029;30;20051;-81
2023/04/13 13:10:05;;;;;;;7.75;1.08;;;12.80;99.90;;;;;;4763786;30;20040;-82
2023/04/13 13:12:30;;;;;;;8.85;1.73;;;12.10;99.90;;;;;;4768178;30;20475;-81
2023/04/13 13:14:59;;;;;;;8.18;1.73;;;11.90;99.90;;;;;;4767066;30;20140;-82
2023/04/13 13:17:26;;;;;;;7.97;1.50;;;11.80;99.90;;;;;;4764439;30;20044;-81
2023/04/13 13:19:53;;;;;;;9.82;1.60;;;11.70;99.90;;;;;;4748400;30;20136;-81
2023/04/13 13:22:19;;;;;;;6.43;1.40;;;11.60;99.90;;;;;;4753187;30;20055;-81
2023/04/13 13:24:51;;;;;;;8.60;1.77;;;11.50;99.90;;;;;;4761912;30;20047;-81
2023/04/13 13:27:17;;;;;;;6.45;1.10;;;11.50;99.90;;;;;;4749305;30;20059;-81